createdAt,value
2023-01-01T00:01:08.944Z,13.40
2023-01-01T00:02:14.112Z,13.40
2023-01-01T00:03:18.393Z,13.40
2023-01-01T00:04:21.140Z,13.40
2023-01-01T00:05:25.008Z,13.40
2023-01-01T00:06:28.936Z,13.40
2023-01-01T00:07:33.669Z,13.40
2023-01-01T00:08:41.629Z,13.40
2023-01-01T00:10:02.805Z,13.40
2023-01-01T00:11:07.982Z,13.40
2023-01-01T00:12:11.652Z,13.40
2023-01-01T00:13:16.111Z,13.40
2023-01-01T00:14:18.786Z,13.40
2023-01-01T00:15:25.116Z,13.40
2023-01-01T00:16:31.609Z,13.40
2023-01-01T00:17:35.065Z,13.40
2023-01-01T00:18:39.478Z,13.30
2023-01-01T00:19:43.679Z,13.30
2023-01-01T00:20:47.230Z,13.30
2023-01-01T00:21:50.155Z,13.20
2023-01-01T00:22:55.363Z,13.30
2023-01-01T00:23:59.063Z,13.30
2023-01-01T00:25:06.641Z,13.30
2023-01-01T00:26:11.875Z,13.30
2023-01-01T00:27:14.509Z,13.30
2023-01-01T00:28:18.395Z,13.30
2023-01-01T00:29:21.665Z,13.30
2023-01-01T00:30:26.138Z,13.60
2023-01-01T00:31:30.473Z,13.40
2023-01-01T00:32:34.430Z,13.40
2023-01-01T00:33:43.191Z,13.40
2023-01-01T00:34:47.106Z,13.40
2023-01-01T00:35:50.949Z,13.40
2023-01-01T00:36:55.222Z,13.40
2023-01-01T00:38:02.206Z,13.40
2023-01-01T00:39:05.927Z,13.70
2023-01-01T00:40:12.872Z,13.50
2023-01-01T00:41:17.137Z,13.50
2023-01-01T00:42:20.729Z,13.40
2023-01-01T00:43:23.552Z,13.40
2023-01-01T00:44:29.132Z,13.40
2023-01-01T00:45:32.713Z,13.40
2023-01-01T00:46:37.395Z,13.40
2023-01-01T00:47:41.326Z,13.40
2023-01-01T00:48:45.433Z,13.40
2023-01-01T00:49:48.256Z,13.40
2023-01-01T00:50:56.678Z,13.40
2023-01-01T00:52:00.267Z,13.40
2023-01-01T00:53:04.591Z,13.40
2023-01-01T00:54:08.460Z,13.40
2023-01-01T00:55:12.627Z,13.40
2023-01-01T00:56:15.493Z,13.40
2023-01-01T00:57:21.555Z,13.40
2023-01-01T00:58:26.682Z,13.40
2023-01-01T00:59:30.599Z,13.40
2023-01-01T01:00:34.784Z,13.40
2023-01-01T01:01:40.807Z,13.40
2023-01-01T01:02:44.991Z,13.40
2023-01-01T01:03:47.798Z,13.40
2023-01-01T01:04:51.637Z,13.50
2023-01-01T01:05:54.544Z,13.50
2023-01-01T01:06:58.949Z,13.50
2023-01-01T01:08:01.747Z,13.50
2023-01-01T01:09:07.545Z,13.50
2023-01-01T01:10:12.278Z,13.60
2023-01-01T01:11:24.418Z,13.50
2023-01-01T01:12:30.863Z,13.50
2023-01-01T01:13:34.855Z,13.50
2023-01-01T01:14:37.421Z,13.50
2023-01-01T01:15:41.444Z,13.50
2023-01-01T01:16:46.897Z,13.50
2023-01-01T01:17:49.636Z,13.50
2023-01-01T01:18:55.238Z,13.50
2023-01-01T01:19:58.315Z,13.50
2023-01-01T01:21:02.716Z,13.50
2023-01-01T01:22:06.543Z,13.50
2023-01-01T01:23:10.560Z,13.50
2023-01-01T01:24:13.442Z,13.50
2023-01-01T01:25:17.292Z,13.50
2023-01-01T01:26:22.612Z,13.50
2023-01-01T01:27:27.185Z,13.50
2023-01-01T01:28:31.447Z,13.60
2023-01-01T01:29:35.678Z,13.60
2023-01-01T01:30:38.404Z,13.60
2023-01-01T01:31:45.629Z,13.60
2023-01-01T01:32:48.965Z,13.60
2023-01-01T01:33:53.019Z,13.60
2023-01-01T01:34:57.848Z,13.60
2023-01-01T01:36:00.696Z,13.60
2023-01-01T01:37:05.081Z,13.60
2023-01-01T01:38:08.251Z,13.60
2023-01-01T01:39:12.949Z,13.50
2023-01-01T01:40:17.931Z,13.50
2023-01-01T01:41:28.928Z,13.60
2023-01-01T01:42:32.214Z,13.50
2023-01-01T01:43:53.548Z,13.60
2023-01-01T01:45:00.557Z,13.60
2023-01-01T01:46:08.699Z,13.70
2023-01-01T01:47:17.880Z,13.60
2023-01-01T01:48:22.904Z,13.60
2023-01-01T01:49:33.568Z,13.70
2023-01-01T01:50:43.522Z,13.70
2023-01-01T01:51:46.847Z,13.60
2023-01-01T01:53:04.078Z,13.70
2023-01-01T01:54:14.225Z,13.70
2023-01-01T01:55:17.317Z,13.70
2023-01-01T01:56:27.650Z,13.80
2023-01-01T01:57:31.816Z,13.80
2023-01-01T01:58:37.113Z,13.70
2023-01-01T01:59:48.979Z,13.80
2023-01-01T02:00:53.341Z,13.80
2023-01-01T02:02:00.473Z,13.80
2023-01-01T02:03:10.732Z,13.80
2023-01-01T02:04:13.814Z,13.80
2023-01-01T02:05:19.854Z,13.80
2023-01-01T02:06:23.781Z,13.80
2023-01-01T02:07:27.960Z,13.70
2023-01-01T02:08:32.068Z,13.70
2023-01-01T02:09:35.113Z,13.70
2023-01-01T02:10:39.131Z,13.70
2023-01-01T02:11:42.187Z,13.80
2023-01-01T02:12:46.008Z,13.80
2023-01-01T02:13:49.913Z,13.80
2023-01-01T02:14:52.656Z,13.80
2023-01-01T02:16:07.481Z,13.80
2023-01-01T02:17:23.609Z,13.80
2023-01-01T02:18:40.552Z,13.80
2023-01-01T02:20:04.821Z,13.80
2023-01-01T02:21:15.432Z,13.80
2023-01-01T02:22:33.061Z,13.80
2023-01-01T02:23:54.984Z,13.80
2023-01-01T02:25:13.233Z,13.80
2023-01-01T02:26:40.887Z,13.70
2023-01-01T02:27:55.884Z,13.80
2023-01-01T02:29:05.230Z,13.70
2023-01-01T02:30:10.468Z,13.80
2023-01-01T02:31:23.315Z,13.80
2023-01-01T02:32:34.151Z,13.80
2023-01-01T02:33:38.060Z,13.80
2023-01-01T02:34:49.133Z,13.80
2023-01-01T02:35:57.043Z,13.80
2023-01-01T02:37:07.875Z,13.90
2023-01-01T02:38:18.409Z,13.90
2023-01-01T02:39:26.321Z,13.90
2023-01-01T02:40:31.423Z,13.90
2023-01-01T02:41:40.981Z,13.90
2023-01-01T02:42:43.731Z,13.90
2023-01-01T02:43:50.599Z,13.90
2023-01-01T02:44:59.469Z,13.80
2023-01-01T02:46:09.052Z,13.80
2023-01-01T02:47:14.767Z,13.80
2023-01-01T02:48:42.166Z,13.90
2023-01-01T02:49:56.267Z,13.80
2023-01-01T02:51:06.163Z,13.90
2023-01-01T02:52:21.689Z,13.90
2023-01-01T02:53:33.505Z,13.90
2023-01-01T02:54:44.631Z,13.90
2023-01-01T02:56:00.191Z,13.80
2023-01-01T02:57:15.739Z,13.80
2023-01-01T02:58:45.599Z,13.80
2023-01-01T03:00:27.642Z,13.90
2023-01-01T03:01:39.902Z,13.80
2023-01-01T03:03:07.587Z,13.90
2023-01-01T03:04:23.089Z,13.80
2023-01-01T03:05:58.459Z,13.90
2023-01-01T03:07:14.389Z,13.80
2023-01-01T03:08:27.035Z,13.80
2023-01-01T03:09:44.488Z,13.80
2023-01-01T03:10:57.380Z,13.80
2023-01-01T03:12:09.702Z,13.80
2023-01-01T03:13:21.773Z,13.70
2023-01-01T03:14:37.528Z,13.70
2023-01-01T03:15:50.729Z,13.70
2023-01-01T03:17:04.184Z,13.70
2023-01-01T03:18:15.485Z,13.70
2023-01-01T03:19:24.596Z,13.70
2023-01-01T03:20:32.099Z,13.70
2023-01-01T03:21:35.934Z,13.80
2023-01-01T03:23:54.742Z,13.80
2023-01-01T03:25:07.769Z,13.80
2023-01-01T03:26:16.282Z,13.80
2023-01-01T03:27:24.800Z,13.90
2023-01-01T03:28:32.507Z,13.90
2023-01-01T03:29:40.580Z,13.90
2023-01-01T03:31:27.852Z,13.90
2023-01-01T03:32:57.500Z,13.90
2023-01-01T03:34:08.704Z,13.90
2023-01-01T03:35:15.026Z,13.90
2023-01-01T03:36:23.828Z,13.80
2023-01-01T03:37:31.909Z,13.80
2023-01-01T03:38:40.271Z,13.90
2023-01-01T03:39:50.888Z,13.80
2023-01-01T03:41:00.403Z,13.90
2023-01-01T03:42:17.618Z,13.90
2023-01-01T03:43:32.124Z,13.90
2023-01-01T03:44:41.804Z,13.90
2023-01-01T03:45:49.062Z,13.90
2023-01-01T03:46:54.209Z,13.90
2023-01-01T03:48:00.710Z,13.90
2023-01-01T03:49:11.661Z,14.00
2023-01-01T03:50:15.942Z,14.00
2023-01-01T03:51:28.571Z,14.00
2023-01-01T03:52:44.659Z,14.00
2023-01-01T03:53:47.988Z,14.00
2023-01-01T03:55:01.628Z,14.00
2023-01-01T03:56:14.964Z,14.00
2023-01-01T03:57:27.916Z,14.00
2023-01-01T03:58:39.521Z,14.00
2023-01-01T03:59:52.061Z,14.00
2023-01-01T04:01:01.684Z,14.00
2023-01-01T04:02:12.581Z,14.00
2023-01-01T04:03:23.422Z,13.90
2023-01-01T04:04:27.481Z,13.90
2023-01-01T04:05:35.782Z,14.00
2023-01-01T04:06:38.362Z,14.00
2023-01-01T04:08:49.056Z,14.00
2023-01-01T04:09:57.567Z,14.00
2023-01-01T04:11:26.430Z,13.90
2023-01-01T04:12:32.576Z,13.90
2023-01-01T04:13:47.436Z,13.90
2023-01-01T04:14:51.008Z,13.90
2023-01-01T04:15:53.827Z,13.80
2023-01-01T04:16:57.826Z,13.90
2023-01-01T04:18:01.656Z,13.90
2023-01-01T04:19:07.172Z,13.90
2023-01-01T04:20:12.162Z,13.90
2023-01-01T04:21:15.134Z,13.80
2023-01-01T04:22:23.425Z,13.90
2023-01-01T04:23:26.471Z,14.00
2023-01-01T04:24:30.788Z,13.90
2023-01-01T04:25:34.050Z,14.00
2023-01-01T04:26:37.764Z,14.00
2023-01-01T04:27:40.969Z,14.00
2023-01-01T04:28:44.895Z,13.90
2023-01-01T04:29:48.905Z,13.90
2023-01-01T04:31:57.814Z,13.90
2023-01-01T04:33:00.334Z,13.90
2023-01-01T04:34:04.146Z,13.90
2023-01-01T04:35:12.385Z,14.00
2023-01-01T04:36:16.295Z,13.90
2023-01-01T04:37:22.988Z,14.00
2023-01-01T04:38:26.170Z,14.00
2023-01-01T04:39:29.876Z,14.00
2023-01-01T04:40:32.442Z,13.90
2023-01-01T04:41:36.488Z,13.90
2023-01-01T04:42:39.636Z,13.90
2023-01-01T04:43:44.540Z,13.90
2023-01-01T04:44:47.267Z,13.90
2023-01-01T04:45:57.784Z,13.60
2023-01-01T04:47:00.475Z,13.80
2023-01-01T04:48:05.658Z,13.90
2023-01-01T04:49:08.191Z,13.90
2023-01-01T04:50:13.135Z,13.90
2023-01-01T04:51:18.698Z,13.80
2023-01-01T04:52:23.163Z,13.90
2023-01-01T04:53:26.872Z,13.90
2023-01-01T04:54:30.957Z,13.90
2023-01-01T04:55:35.087Z,13.90
2023-01-01T04:56:38.977Z,13.90
2023-01-01T04:57:42.793Z,14.00
2023-01-01T04:58:47.499Z,13.90
2023-01-01T04:59:49.976Z,14.00
2023-01-01T05:00:53.890Z,14.00
2023-01-01T05:01:56.854Z,14.00
2023-01-01T05:03:01.087Z,14.00
2023-01-01T05:04:04.100Z,14.00
2023-01-01T05:05:08.642Z,14.00
2023-01-01T05:06:13.738Z,14.00
2023-01-01T05:07:20.390Z,14.00
2023-01-01T05:08:23.196Z,14.10
2023-01-01T05:09:26.899Z,14.00
2023-01-01T05:10:29.950Z,14.00
2023-01-01T05:11:35.994Z,14.00
2023-01-01T05:12:39.081Z,14.10
2023-01-01T05:13:45.928Z,14.10
2023-01-01T05:14:48.320Z,14.10
2023-01-01T05:15:51.937Z,14.10
2023-01-01T05:16:55.548Z,14.10
2023-01-01T05:17:59.032Z,14.10
2023-01-01T05:19:02.883Z,14.10
2023-01-01T05:20:06.780Z,14.20
2023-01-01T05:21:15.006Z,14.20
2023-01-01T05:22:17.752Z,14.20
2023-01-01T05:23:23.930Z,14.20
2023-01-01T05:24:27.073Z,14.20
2023-01-01T05:25:30.874Z,14.10
2023-01-01T05:26:36.982Z,14.10
2023-01-01T05:27:40.962Z,14.10
2023-01-01T05:28:44.188Z,14.10
2023-01-01T05:29:48.326Z,14.10
2023-01-01T05:30:51.322Z,14.20
2023-01-01T05:31:55.110Z,14.20
2023-01-01T05:32:58.149Z,14.30
2023-01-01T05:35:05.977Z,14.20
2023-01-01T05:36:12.497Z,14.20
2023-01-01T05:37:16.239Z,14.20
2023-01-01T05:38:20.151Z,14.20
2023-01-01T05:39:23.247Z,14.20
2023-01-01T05:40:26.863Z,14.30
2023-01-01T05:41:31.636Z,14.30
2023-01-01T05:42:36.154Z,14.30
2023-01-01T05:43:39.318Z,14.30
2023-01-01T05:44:43.389Z,14.30
2023-01-01T05:45:48.290Z,14.30
2023-01-01T05:46:51.650Z,14.30
2023-01-01T05:47:54.232Z,14.30
2023-01-01T05:48:58.166Z,14.30
2023-01-01T05:51:05.936Z,14.20
2023-01-01T05:52:09.656Z,14.20
2023-01-01T05:53:13.909Z,14.20
2023-01-01T05:55:19.222Z,14.20
2023-01-01T05:56:23.591Z,14.20
2023-01-01T05:57:26.202Z,14.20
2023-01-01T05:58:31.639Z,14.20
2023-01-01T05:59:34.986Z,14.20
2023-01-01T06:00:39.297Z,14.20
2023-01-01T06:01:45.872Z,14.20
2023-01-01T06:02:51.615Z,14.20
2023-01-01T06:03:56.045Z,14.20
2023-01-01T06:05:01.891Z,14.20
2023-01-01T06:06:06.127Z,14.20
2023-01-01T06:07:09.470Z,14.10
2023-01-01T06:08:15.392Z,14.10
2023-01-01T06:09:18.121Z,14.20
2023-01-01T06:10:21.808Z,14.10
2023-01-01T06:11:26.040Z,14.20
2023-01-01T06:12:29.963Z,14.20
2023-01-01T06:13:33.290Z,14.10
2023-01-01T06:14:37.250Z,14.10
2023-01-01T06:15:41.133Z,14.10
2023-01-01T06:16:44.815Z,14.10
2023-01-01T06:17:50.027Z,14.10
2023-01-01T06:18:54.329Z,14.10
2023-01-01T06:19:58.104Z,14.10
2023-01-01T06:21:06.282Z,14.10
2023-01-01T06:22:10.201Z,14.10
2023-01-01T06:23:14.134Z,14.00
2023-01-01T06:24:17.740Z,14.00
2023-01-01T06:25:20.389Z,14.00
2023-01-01T06:26:27.465Z,14.00
2023-01-01T06:27:30.285Z,14.00
2023-01-01T06:28:34.022Z,14.00
2023-01-01T06:29:36.887Z,13.90
2023-01-01T06:30:40.726Z,13.90
2023-01-01T06:31:44.470Z,14.00
2023-01-01T06:32:49.572Z,13.90
2023-01-01T06:33:52.504Z,13.90
2023-01-01T06:34:55.886Z,13.90
2023-01-01T06:35:58.813Z,13.80
2023-01-01T06:37:07.012Z,13.90
2023-01-01T06:38:11.249Z,13.90
2023-01-01T06:39:17.994Z,13.90
2023-01-01T06:40:21.484Z,13.80
2023-01-01T06:41:30.857Z,13.80
2023-01-01T06:42:34.111Z,13.70
2023-01-01T06:43:40.621Z,13.70
2023-01-01T06:44:43.627Z,13.70
2023-01-01T06:45:47.458Z,13.70
2023-01-01T06:46:50.258Z,13.70
2023-01-01T06:47:53.704Z,13.80
2023-01-01T06:48:58.470Z,13.70
2023-01-01T06:50:04.163Z,13.80
2023-01-01T06:51:08.951Z,13.80
2023-01-01T06:52:12.543Z,13.80
2023-01-01T06:53:15.315Z,13.80
2023-01-01T06:54:20.609Z,13.60
2023-01-01T06:55:23.289Z,13.80
2023-01-01T06:56:27.195Z,13.70
2023-01-01T06:57:30.522Z,13.70
2023-01-01T06:58:35.336Z,13.70
2023-01-01T06:59:39.154Z,13.70
2023-01-01T07:00:42.925Z,13.60
2023-01-01T07:01:46.696Z,13.70
2023-01-01T07:02:49.375Z,13.70
2023-01-01T07:03:55.451Z,13.70
2023-01-01T07:05:01.238Z,13.70
2023-01-01T07:06:04.327Z,13.70
2023-01-01T07:07:08.084Z,13.70
2023-01-01T07:08:10.704Z,13.70
2023-01-01T07:09:14.329Z,13.60
2023-01-01T07:10:19.464Z,13.70
2023-01-01T07:11:23.334Z,13.60
2023-01-01T07:12:27.086Z,13.70
2023-01-01T07:13:33.095Z,13.70
2023-01-01T07:14:37.205Z,13.70
2023-01-01T07:15:40.135Z,13.70
2023-01-01T07:16:43.474Z,13.70
2023-01-01T07:17:46.127Z,13.70
2023-01-01T07:18:50.782Z,13.70
2023-01-01T07:19:54.574Z,13.80
2023-01-01T07:20:59.436Z,13.80
2023-01-01T07:22:03.268Z,13.80
2023-01-01T07:23:06.257Z,13.90
2023-01-01T07:24:12.611Z,13.90
2023-01-01T07:25:16.372Z,13.90
2023-01-01T07:26:23.459Z,13.80
2023-01-01T07:27:27.203Z,13.90
2023-01-01T07:28:29.856Z,14.00
2023-01-01T07:29:33.822Z,14.10
2023-01-01T07:30:39.568Z,14.10
2023-01-01T07:31:45.301Z,14.10
2023-01-01T07:32:48.973Z,14.10
2023-01-01T07:33:52.663Z,14.30
2023-01-01T07:34:55.366Z,14.10
2023-01-01T07:35:59.673Z,14.10
2023-01-01T07:37:03.781Z,14.10
2023-01-01T07:38:07.404Z,14.10
2023-01-01T07:39:11.241Z,14.20
2023-01-01T07:40:14.253Z,14.20
2023-01-01T07:41:18.117Z,14.20
2023-01-01T07:42:23.458Z,14.30
2023-01-01T07:43:26.196Z,14.30
2023-01-01T07:44:32.488Z,14.30
2023-01-01T07:45:36.914Z,14.40
2023-01-01T07:46:48.221Z,14.60
2023-01-01T07:48:00.358Z,14.70
2023-01-01T07:49:04.785Z,14.70
2023-01-01T07:50:15.787Z,14.90
2023-01-01T07:51:21.990Z,15.00
2023-01-01T07:52:25.177Z,15.00
2023-01-01T07:53:29.168Z,15.10
2023-01-01T07:54:32.804Z,15.30
2023-01-01T07:55:37.137Z,15.30
2023-01-01T07:56:41.136Z,15.50
2023-01-01T07:57:46.216Z,15.60
2023-01-01T07:58:50.221Z,15.70
2023-01-01T07:59:53.926Z,15.70
2023-01-01T08:00:56.530Z,15.70
2023-01-01T08:02:00.629Z,15.80
2023-01-01T08:03:04.656Z,15.80
2023-01-01T08:04:08.647Z,15.80
2023-01-01T08:05:11.657Z,15.70
2023-01-01T08:06:15.438Z,15.70
2023-01-01T08:07:19.150Z,15.80
2023-01-01T08:08:21.828Z,15.80
2023-01-01T08:09:26.432Z,15.90
2023-01-01T08:10:30.284Z,15.90
2023-01-01T08:11:34.075Z,15.90
2023-01-01T08:12:37.052Z,16.00
2023-01-01T08:13:42.208Z,16.00
2023-01-01T08:14:44.694Z,16.10
2023-01-01T08:15:48.507Z,16.20
2023-01-01T08:16:52.507Z,16.20
2023-01-01T08:17:59.266Z,16.30
2023-01-01T08:19:03.168Z,16.30
2023-01-01T08:20:08.907Z,16.40
2023-01-01T08:21:12.655Z,16.40
2023-01-01T08:22:15.692Z,16.40
2023-01-01T08:23:19.411Z,16.40
2023-01-01T08:24:23.352Z,16.50
2023-01-01T08:25:26.392Z,16.70
2023-01-01T08:26:35.140Z,16.70
2023-01-01T08:27:38.323Z,16.80
2023-01-01T08:28:46.096Z,16.80
2023-01-01T08:29:49.512Z,16.80
2023-01-01T08:30:54.393Z,16.90
2023-01-01T08:31:58.005Z,17.00
2023-01-01T08:33:01.379Z,17.00
2023-01-01T08:34:05.319Z,17.10
2023-01-01T08:35:08.971Z,17.10
2023-01-01T08:36:16.587Z,17.30
2023-01-01T08:37:22.497Z,17.20
2023-01-01T08:38:26.143Z,17.30
2023-01-01T08:39:28.741Z,17.30
2023-01-01T08:40:32.843Z,17.40
2023-01-01T08:41:35.992Z,17.30
2023-01-01T08:42:39.559Z,17.40
2023-01-01T08:43:43.575Z,17.40
2023-01-01T08:44:47.573Z,17.50
2023-01-01T08:45:51.329Z,17.60
2023-01-01T08:46:55.858Z,17.70
2023-01-01T08:47:59.215Z,17.80
2023-01-01T08:49:03.356Z,17.90
2023-01-01T08:50:08.601Z,17.80
2023-01-01T08:51:12.753Z,17.80
2023-01-01T08:52:16.595Z,17.70
2023-01-01T08:53:20.985Z,17.80
2023-01-01T08:54:23.661Z,17.60
2023-01-01T08:55:27.470Z,17.60
2023-01-01T08:56:30.330Z,17.70
2023-01-01T08:57:34.244Z,17.90
2023-01-01T08:58:40.047Z,17.90
2023-01-01T08:59:44.350Z,18.00
2023-01-01T09:00:47.854Z,18.00
2023-01-01T09:01:51.695Z,18.00
2023-01-01T09:02:55.556Z,18.10
2023-01-01T09:03:59.344Z,18.20
2023-01-01T09:05:01.932Z,18.20
2023-01-01T09:06:06.082Z,18.30
2023-01-01T09:07:09.706Z,18.50
2023-01-01T09:08:14.127Z,18.60
2023-01-01T09:09:19.770Z,18.60
2023-01-01T09:10:23.607Z,18.60
2023-01-01T09:11:29.815Z,18.60
2023-01-01T09:12:34.308Z,18.50
2023-01-01T09:13:38.133Z,18.50
2023-01-01T09:14:40.788Z,18.50
2023-01-01T09:15:45.961Z,18.60
2023-01-01T09:16:50.135Z,18.60
2023-01-01T09:17:56.875Z,18.60
2023-01-01T09:19:00.965Z,18.80
2023-01-01T09:20:03.898Z,18.80
2023-01-01T09:21:07.660Z,18.90
2023-01-01T09:22:10.685Z,19.00
2023-01-01T09:23:17.229Z,18.90
2023-01-01T09:24:21.065Z,19.00
2023-01-01T09:25:25.210Z,19.10
2023-01-01T09:26:29.050Z,19.20
2023-01-01T09:27:35.377Z,19.20
2023-01-01T09:28:40.312Z,19.10
2023-01-01T09:29:44.673Z,19.20
2023-01-01T09:30:48.474Z,19.20
2023-01-01T09:31:52.742Z,19.20
2023-01-01T09:32:55.804Z,19.30
2023-01-01T09:33:59.651Z,19.30
2023-01-01T09:35:04.020Z,19.20
2023-01-01T09:36:15.996Z,19.20
2023-01-01T09:37:20.820Z,19.10
2023-01-01T09:38:25.935Z,19.10
2023-01-01T09:39:30.421Z,19.10
2023-01-01T09:40:51.170Z,19.00
2023-01-01T09:42:20.071Z,18.80
2023-01-01T09:43:40.097Z,18.70
2023-01-01T09:45:00.531Z,18.70
2023-01-01T09:46:09.017Z,18.50
2023-01-01T09:47:24.538Z,18.40
2023-01-01T09:48:31.559Z,18.30
2023-01-01T09:49:44.505Z,18.20
2023-01-01T09:50:48.722Z,18.20
2023-01-01T09:51:59.193Z,18.00
2023-01-01T09:53:07.393Z,17.90
2023-01-01T09:54:21.578Z,17.90
2023-01-01T09:55:28.924Z,17.80
2023-01-01T09:56:36.683Z,17.80
2023-01-01T09:57:40.984Z,17.80
2023-01-01T09:58:44.845Z,17.80
2023-01-01T09:59:48.617Z,17.80
2023-01-01T10:00:56.507Z,17.80
2023-01-01T10:02:15.190Z,17.80
2023-01-01T10:03:33.682Z,17.80
2023-01-01T10:04:54.046Z,17.80
2023-01-01T10:06:09.985Z,17.90
2023-01-01T10:07:25.921Z,18.00
2023-01-01T10:08:45.406Z,18.10
2023-01-01T10:10:00.862Z,18.30
2023-01-01T10:11:19.168Z,18.40
2023-01-01T10:12:36.649Z,18.40
2023-01-01T10:13:44.621Z,18.50
2023-01-01T10:15:00.682Z,18.40
2023-01-01T10:16:15.231Z,18.40
2023-01-01T10:17:34.181Z,18.40
2023-01-01T10:18:42.815Z,18.30
2023-01-01T10:19:51.739Z,18.40
2023-01-01T10:21:05.073Z,18.40
2023-01-01T10:22:16.525Z,18.40
2023-01-01T10:23:26.061Z,18.40
2023-01-01T10:24:43.606Z,18.30
2023-01-01T10:25:47.965Z,18.30
2023-01-01T10:26:55.625Z,18.40
2023-01-01T10:28:01.627Z,18.40
2023-01-01T10:29:16.251Z,18.50
2023-01-01T10:30:23.182Z,18.30
2023-01-01T10:31:36.686Z,18.20
2023-01-01T10:32:43.657Z,18.30
2023-01-01T10:33:49.174Z,18.20
2023-01-01T10:34:58.290Z,18.30
2023-01-01T10:36:02.309Z,18.20
2023-01-01T10:37:06.164Z,18.30
2023-01-01T10:38:19.348Z,18.30
2023-01-01T10:39:23.511Z,18.30
2023-01-01T10:40:30.117Z,18.30
2023-01-01T10:41:33.985Z,18.30
2023-01-01T10:42:37.355Z,18.60
2023-01-01T10:43:41.585Z,18.40
2023-01-01T10:44:45.885Z,18.50
2023-01-01T10:45:55.972Z,18.50
2023-01-01T10:47:06.043Z,18.60
2023-01-01T10:48:20.506Z,18.60
2023-01-01T10:49:23.718Z,18.70
2023-01-01T10:50:44.555Z,18.80
2023-01-01T10:51:52.416Z,18.90
2023-01-01T10:52:57.858Z,19.10
2023-01-01T10:54:02.331Z,19.20
2023-01-01T10:55:07.139Z,19.30
2023-01-01T10:56:13.830Z,19.40
2023-01-01T10:57:22.509Z,19.30
2023-01-01T10:58:37.372Z,19.30
2023-01-01T10:59:46.836Z,19.20
2023-01-01T11:01:00.696Z,19.20
2023-01-01T11:02:19.947Z,19.30
2023-01-01T11:03:26.022Z,19.30
2023-01-01T11:04:31.625Z,19.40
2023-01-01T11:05:34.380Z,19.40
2023-01-01T11:06:45.074Z,19.40
2023-01-01T11:07:51.402Z,19.50
2023-01-01T11:08:58.278Z,19.50
2023-01-01T11:10:05.618Z,19.50
2023-01-01T11:11:19.944Z,19.50
2023-01-01T11:13:03.498Z,19.50
2023-01-01T11:14:00.493Z,19.50
2023-01-01T11:15:07.741Z,19.50
2023-01-01T11:16:13.701Z,19.50
2023-01-01T11:17:24.298Z,19.50
2023-01-01T11:18:36.105Z,19.50
2023-01-01T11:19:50.593Z,19.60
2023-01-01T11:20:59.092Z,19.60
2023-01-01T11:22:01.892Z,19.50
2023-01-01T11:23:21.381Z,19.60
2023-01-01T11:24:27.748Z,19.70
2023-01-01T11:25:32.583Z,19.70
2023-01-01T11:26:36.536Z,19.70
2023-01-01T11:27:42.237Z,19.70
2023-01-01T11:29:02.305Z,19.70
2023-01-01T11:30:25.912Z,19.80
2023-01-01T11:31:34.634Z,19.80
2023-01-01T11:32:40.090Z,19.80
2023-01-01T11:33:52.707Z,19.80
2023-01-01T11:35:02.008Z,19.70
2023-01-01T11:36:08.701Z,19.60
2023-01-01T11:37:22.015Z,19.70
2023-01-01T11:38:30.195Z,19.60
2023-01-01T11:39:37.664Z,19.60
2023-01-01T11:40:49.029Z,19.60
2023-01-01T11:41:56.971Z,19.50
2023-01-01T11:43:05.534Z,19.50
2023-01-01T11:44:12.017Z,19.50
2023-01-01T11:45:21.886Z,19.50
2023-01-01T11:46:26.833Z,19.50
2023-01-01T11:47:36.687Z,19.40
2023-01-01T11:48:45.009Z,19.40
2023-01-01T11:49:56.878Z,19.30
2023-01-01T11:51:09.237Z,19.30
2023-01-01T11:52:31.724Z,19.30
2023-01-01T11:53:39.154Z,19.30
2023-01-01T11:54:44.569Z,19.20
2023-01-01T11:55:54.074Z,19.20
2023-01-01T11:57:08.869Z,19.30
2023-01-01T11:58:23.257Z,19.30
2023-01-01T11:59:33.845Z,19.30
2023-01-01T12:00:37.852Z,19.10
2023-01-01T12:01:48.691Z,19.10
2023-01-01T12:03:01.295Z,19.10
2023-01-01T12:04:12.842Z,19.00
2023-01-01T12:05:23.255Z,18.90
2023-01-01T12:06:34.238Z,18.90
2023-01-01T12:07:42.185Z,18.90
2023-01-01T12:08:52.764Z,18.90
2023-01-01T12:10:03.503Z,18.90
2023-01-01T12:11:21.937Z,18.90
2023-01-01T12:12:32.658Z,18.90
2023-01-01T12:13:51.365Z,19.00
2023-01-01T12:15:03.645Z,19.00
2023-01-01T12:16:17.023Z,18.90
2023-01-01T12:17:27.645Z,18.90
2023-01-01T12:18:40.938Z,18.90
2023-01-01T12:19:57.145Z,18.90
2023-01-01T12:21:11.682Z,18.90
2023-01-01T12:22:19.532Z,18.90
2023-01-01T12:23:23.371Z,18.90
2023-01-01T12:24:34.043Z,18.90
2023-01-01T12:25:42.906Z,18.90
2023-01-01T12:27:10.515Z,18.80
2023-01-01T12:28:34.541Z,18.80
2023-01-01T12:30:00.838Z,18.80
2023-01-01T12:31:15.638Z,18.70
2023-01-01T12:32:32.903Z,18.70
2023-01-01T12:33:58.879Z,18.80
2023-01-01T12:35:17.014Z,18.80
2023-01-01T12:36:35.901Z,18.70
2023-01-01T12:37:59.438Z,18.70
2023-01-01T12:39:53.221Z,18.80
2023-01-01T12:41:07.690Z,18.70
2023-01-01T12:42:28.969Z,18.70
2023-01-01T12:43:46.346Z,18.60
2023-01-01T12:45:12.159Z,18.50
2023-01-01T12:46:44.015Z,18.40
2023-01-01T12:48:00.600Z,18.30
2023-01-01T12:49:27.683Z,18.30
2023-01-01T12:50:53.635Z,18.30
2023-01-01T12:52:15.153Z,18.10
2023-01-01T12:53:35.391Z,18.10
2023-01-01T12:55:15.649Z,18.10
2023-01-01T12:56:30.469Z,18.20
2023-01-01T12:57:41.888Z,18.10
2023-01-01T12:58:54.298Z,18.20
2023-01-01T13:00:03.333Z,18.20
2023-01-01T13:01:11.715Z,18.20
2023-01-01T13:02:26.393Z,18.00
2023-01-01T13:03:36.753Z,18.00
2023-01-01T13:04:47.028Z,18.00
2023-01-01T13:05:55.842Z,18.00
2023-01-01T13:07:08.078Z,18.00
2023-01-01T13:08:10.727Z,18.10
2023-01-01T13:09:20.547Z,18.00
2023-01-01T13:10:30.358Z,18.00
2023-01-01T13:11:41.268Z,17.90
2023-01-01T13:12:47.480Z,17.90
2023-01-01T13:13:51.829Z,17.80
2023-01-01T13:14:56.441Z,17.80
2023-01-01T13:16:01.109Z,17.90
2023-01-01T13:17:05.145Z,17.90
2023-01-01T13:18:17.149Z,18.00
2023-01-01T13:19:29.397Z,18.00
2023-01-01T13:20:36.295Z,17.90
2023-01-01T13:21:39.796Z,17.90
2023-01-01T13:22:44.962Z,17.90
2023-01-01T13:23:52.667Z,17.90
2023-01-01T13:25:07.632Z,17.80
2023-01-01T13:26:36.525Z,17.80
2023-01-01T13:28:06.137Z,17.70
2023-01-01T13:29:43.769Z,17.80
2023-01-01T13:30:52.934Z,17.80
2023-01-01T13:32:07.763Z,17.80
2023-01-01T13:33:26.028Z,17.80
2023-01-01T13:34:44.475Z,17.80
2023-01-01T13:35:48.642Z,17.80
2023-01-01T13:36:51.690Z,17.70
2023-01-01T13:37:57.743Z,17.60
2023-01-01T13:39:08.044Z,17.60
2023-01-01T13:40:44.731Z,17.50
2023-01-01T13:41:50.221Z,17.50
2023-01-01T13:43:07.323Z,17.60
2023-01-01T13:44:23.425Z,17.50
2023-01-01T13:47:27.639Z,17.40
2023-01-01T13:49:02.107Z,17.40
2023-01-01T13:50:15.351Z,17.40
2023-01-01T13:52:07.844Z,17.40
2023-01-01T13:53:36.589Z,17.50
2023-01-01T13:55:20.623Z,17.30
2023-01-01T13:56:39.292Z,17.30
2023-01-01T13:58:17.143Z,17.20
2023-01-01T13:59:42.396Z,17.30
2023-01-01T14:01:07.271Z,17.10
2023-01-01T14:02:23.521Z,17.10
2023-01-01T14:03:28.716Z,17.10
2023-01-01T14:04:40.693Z,17.10
2023-01-01T14:05:50.287Z,17.10
2023-01-01T14:07:09.212Z,17.10
2023-01-01T14:08:35.182Z,17.00
2023-01-01T14:09:38.008Z,17.10
2023-01-01T14:10:41.786Z,17.10
2023-01-01T14:11:45.714Z,17.10
2023-01-01T14:12:50.070Z,17.10
2023-01-01T14:13:53.815Z,17.10
2023-01-01T14:14:56.332Z,17.10
2023-01-01T14:16:04.572Z,17.10
2023-01-01T14:17:10.031Z,17.20
2023-01-01T14:18:17.849Z,17.10
2023-01-01T14:19:20.797Z,17.20
2023-01-01T14:20:30.610Z,17.20
2023-01-01T14:21:36.600Z,17.20
2023-01-01T14:22:41.107Z,17.10
2023-01-01T14:23:51.607Z,17.10
2023-01-01T14:24:55.064Z,17.10
2023-01-01T14:26:01.394Z,17.00
2023-01-01T14:27:06.648Z,17.00
2023-01-01T14:28:20.344Z,16.90
2023-01-01T14:29:28.337Z,16.90
2023-01-01T14:30:35.119Z,16.90
2023-01-01T14:31:44.492Z,17.00
2023-01-01T14:32:56.455Z,17.00
2023-01-01T14:34:03.801Z,17.10
2023-01-01T14:35:17.759Z,17.10
2023-01-01T14:36:24.413Z,17.20
2023-01-01T14:37:30.149Z,17.20
2023-01-01T14:38:35.914Z,17.10
2023-01-01T14:39:44.169Z,17.00
2023-01-01T14:40:49.469Z,17.00
2023-01-01T14:41:54.457Z,17.00
2023-01-01T14:43:03.596Z,17.00
2023-01-01T14:44:13.705Z,16.90
2023-01-01T14:45:19.180Z,16.80
2023-01-01T14:46:27.210Z,16.90